LPHR/HOR METAR and TAF weather

Enter ICAO airport designator
Station Type Date Time Source
LPHR METAR 2019/06/19 06:30 UTC NOAA

LPHR 190630Z 05004KT 9999 FEW016 SCT040 BKN070 18/15 Q1017


Station Type Date Time Source
LPHR Decoded METAR 2019/06/19 06:30 UTC NOAA

Horta / Castelo Branco Acores , Portugal (LPHR) 38-31N 028-43W 41M
Jun 19, 2019 - 02:30 AM EDT / 2019.06.19 0630 UTC
Wind: from the NE (050 degrees) at 5 MPH (4 KT):0
Visibility: greater than 7 mile(s):0
Sky conditions: mostly cloudy
Temperature: 64 F (18 C)
Dew Point: 59 F (15 C)
Relative Humidity: 82%
Pressure (altimeter): 30.03 in. Hg (1017 hPa)
ob: LPHR 190630Z 05004KT 9999 FEW016 SCT040 BKN070 18/15 Q1017
cycle: 6

Station Type Date Time Source
LPHR TAF 2018/09/06 09:00 UTC NOAA

TAF LPHR 060800Z 0609/0618 12010KT 9999 SCT018 SCT040 PROB30
TEMPO 0609/0618 5000 SHRA BKN015 FEW018CB
BECMG 0610/0612 18010KT

Example: see airport list